Time;durP1;ratioP1;P1;durP2;ratioP2;P2;SDS_P1;SDS_P2;PMS_P1;PMS_P2;Temp;Humidity;BMP_temperature;BMP_pressure;BME280_temperature;BME280_humidity;BME280_pressure;Samples;Min_cycle;Max_cycle;Signal;HPM_P1;HPM_P2
2022/12/06 00:01:41;;;;;;;6.55;5.00;;;;;;;;;;4988957;28;20027;-79
2022/12/06 00:04:11;;;;;;;6.72;4.93;;;;;;;;;;4987831;28;20027;-79
2022/12/06 00:06:50;;;;;;;6.53;5.20;;;;;;;;;;4978886;28;20031;-78
2022/12/06 00:09:20;;;;;;;6.82;5.20;;;;;;;;;;4995537;28;20477;-78
2022/12/06 00:11:51;;;;;;;5.93;5.10;;;;;;;;;;4984982;28;20031;-78
2022/12/06 00:14:17;;;;;;;;;;;;;;;;;;4988586;28;20046;-78
2022/12/06 00:16:44;;;;;;;5.72;5.10;;;;;;;;;;4980336;28;19913;-79
2022/12/06 00:19:17;;;;;;;6.95;5.03;;;;;;;;;;4990782;28;20362;-78
2022/12/06 00:21:44;;;;;;;5.88;4.90;;;;;;;;;;4981568;28;20088;-77
2022/12/06 00:24:10;;;;;;;6.15;5.00;;;;;;;;;;4980920;28;20027;-77
2022/12/06 00:26:37;;;;;;;6.30;5.40;;;;;;;;;;4989476;28;20022;-77
2022/12/06 00:29:11;;;;;;;6.03;4.93;;;;;;;;;;4976030;28;20411;-77
2022/12/06 00:31:40;;;;;;;8.73;4.63;;;;;;;;;;4985209;28;20037;-76
2022/12/06 00:34:08;;;;;;;6.55;5.35;;;;;;;;;;4986227;28;20030;-77
2022/12/06 00:36:36;;;;;;;6.00;4.68;;;;;;;;;;4977846;28;20031;-78
2022/12/06 00:39:11;;;;;;;6.43;4.55;;;;;;;;;;4988712;28;20030;-78
2022/12/06 00:41:37;;;;;;;6.38;5.20;;;;;;;;;;4990111;28;20052;-78
2022/12/06 00:44:03;;;;;;;6.43;5.40;;;;;;;;;;4981607;28;20030;-78
2022/12/06 00:46:30;;;;;;;5.20;4.53;;;;;;;;;;4986661;28;20035;-77
2022/12/06 00:48:57;;;;;;;6.05;4.57;;;;;;;;;;4976108;28;20033;-77
2022/12/06 00:51:26;;;;;;;5.43;4.60;;;;;;;;;;4986187;28;20114;-78
2022/12/06 00:53:53;;;;;;;5.80;4.78;;;;;;;;;;4981934;28;20420;-78
2022/12/06 00:56:19;;;;;;;5.00;4.45;;;;;;;;;;4980206;28;20023;-78
2022/12/06 00:58:49;;;;;;;6.68;4.40;;;;;;;;;;4988548;28;20038;-79
2022/12/06 01:01:22;;;;;;;6.15;4.40;;;;;;;;;;4987987;28;20065;-77
2022/12/06 01:03:58;;;;;;;6.10;4.55;;;;;;;;;;4981622;28;20072;-78
2022/12/06 01:06:26;;;;;;;5.43;4.50;;;;;;;;;;4978456;28;20031;-78
2022/12/06 01:09:09;;;;;;;7.60;5.40;;;;;;;;;;4989553;28;20022;-78
2022/12/06 01:11:51;;;;;;;;;;;;;;;;;;;;;
2022/12/06 01:14:19;;;;;;;8.30;4.93;;;;;;;;;;4980380;28;20034;-78
2022/12/06 01:16:46;;;;;;;5.13;4.10;;;;;;;;;;4989831;28;20385;-79
2022/12/06 01:19:12;;;;;;;5.90;4.55;;;;;;;;;;4977625;28;20102;-78
2022/12/06 01:21:44;;;;;;;6.07;4.72;;;;;;;;;;4984111;28;20138;-78
2022/12/06 01:24:10;;;;;;;4.72;3.90;;;;;;;;;;4984162;28;20459;-78
2022/12/06 01:26:36;;;;;;;6.57;5.13;;;;;;;;;;4993222;28;20394;-78
2022/12/06 01:29:15;;;;;;;;;;;;;;;;;;;;;
2022/12/06 01:31:47;;;;;;;7.43;5.40;;;;;;;;;;4981802;28;20035;-78
2022/12/06 01:34:34;;;;;;;7.38;5.50;;;;;;;;;;4987034;28;20485;-78
2022/12/06 01:37:03;;;;;;;8.93;5.72;;;;;;;;;;4975407;28;20023;-77
2022/12/06 01:39:31;;;;;;;11.10;6.72;;;;;;;;;;4985609;28;20058;-78
2022/12/06 01:42:00;;;;;;;9.30;6.78;;;;;;;;;;4990607;28;20493;-77
2022/12/06 01:44:46;;;;;;;10.10;7.60;;;;;;;;;;4977391;28;20037;-78
2022/12/06 01:47:51;;;;;;;8.13;6.18;;;;;;;;;;4975893;28;20019;-78
2022/12/06 01:50:32;;;;;;;8.25;6.03;;;;;;;;;;4937117;29;20245;-78
2022/12/06 01:53:17;;;;;;;8.35;6.45;;;;;;;;;;4971116;28;20050;-77
2022/12/06 01:55:49;;;;;;;8.73;6.00;;;;;;;;;;4983374;28;20034;-78
2022/12/06 01:58:22;;;;;;;10.02;6.38;;;;;;;;;;4983592;28;20104;-78
2022/12/06 02:00:51;;;;;;;8.20;6.25;;;;;;;;;;4975597;28;20513;-78
2022/12/06 02:03:19;;;;;;;9.10;6.15;;;;;;;;;;4976118;28;20030;-77
2022/12/06 02:05:57;;;;;;;11.68;6.57;;;;;;;;;;4982791;28;20043;-77
2022/12/06 02:08:24;;;;;;;9.50;6.35;;;;;;;;;;4986007;28;20110;-78
2022/12/06 02:10:55;;;;;;;11.82;6.72;;;;;;;;;;4974747;28;20398;-77
2022/12/06 02:13:22;;;;;;;9.30;6.22;;;;;;;;;;4986478;28;20037;-75
2022/12/06 02:15:53;;;;;;;11.15;6.90;;;;;;;;;;4980096;28;20033;-76
2022/12/06 02:18:19;;;;;;;;;;;;;;;;;;4978211;28;20065;-76
2022/12/06 02:20:49;;;;;;;9.65;6.30;;;;;;;;;;4988404;28;19937;-77
2022/12/06 02:23:34;;;;;;;7.20;5.43;;;;;;;;;;4976280;28;20121;-78
2022/12/06 02:26:02;;;;;;;8.80;6.60;;;;;;;;;;4980607;28;20081;-78
2022/12/06 02:29:05;;;;;;;10.77;6.82;;;;;;;;;;4986357;28;20050;-78
2022/12/06 02:31:40;;;;;;;9.48;6.85;;;;;;;;;;4978039;28;20084;-78
2022/12/06 02:34:09;;;;;;;9.10;6.75;;;;;;;;;;4992035;28;20026;-78
2022/12/06 02:36:54;;;;;;;7.47;5.80;;;;;;;;;;4975987;28;20144;-77
2022/12/06 02:39:33;;;;;;;9.25;6.82;;;;;;;;;;4976431;28;20023;-78
2022/12/06 02:42:02;;;;;;;9.18;6.45;;;;;;;;;;4982528;28;20513;-77
2022/12/06 02:44:31;;;;;;;8.60;5.97;;;;;;;;;;4977806;28;20023;-75
2022/12/06 02:46:58;;;;;;;8.85;6.32;;;;;;;;;;4989309;28;20049;-77
2022/12/06 02:49:25;;;;;;;8.65;6.53;;;;;;;;;;4986012;28;20035;-77
2022/12/06 02:51:53;;;;;;;8.38;6.32;;;;;;;;;;4981592;28;20098;-76
2022/12/06 02:54:20;;;;;;;8.05;6.10;;;;;;;;;;4979026;28;20026;-76
2022/12/06 02:56:48;;;;;;;8.07;5.90;;;;;;;;;;4988953;28;20516;-77
2022/12/06 02:59:15;;;;;;;8.70;6.03;;;;;;;;;;4975122;28;20150;-76
2022/12/06 03:01:47;;;;;;;7.80;6.00;;;;;;;;;;4982615;28;20389;-76
2022/12/06 03:04:33;;;;;;;8.20;5.97;;;;;;;;;;4984618;28;20022;-76
2022/12/06 03:07:12;;;;;;;9.05;6.72;;;;;;;;;;4975484;28;20073;-77
2022/12/06 03:09:50;;;;;;;11.43;7.13;;;;;;;;;;4984451;28;20517;-76
2022/12/06 03:12:33;;;;;;;9.88;7.07;;;;;;;;;;4983163;28;20034;-77
2022/12/06 03:15:18;;;;;;;9.63;7.18;;;;;;;;;;4987647;28;20042;-77
2022/12/06 03:17:47;;;;;;;10.48;7.97;;;;;;;;;;4982562;28;20023;-77
2022/12/06 03:20:17;;;;;;;10.88;7.57;;;;;;;;;;4982752;28;20149;-76
2022/12/06 03:22:45;;;;;;;11.38;8.02;;;;;;;;;;4991551;28;20041;-77
2022/12/06 03:25:12;;;;;;;9.75;6.75;;;;;;;;;;4977973;28;20094;-77
2022/12/06 03:27:39;;;;;;;11.48;8.15;;;;;;;;;;4986985;28;20041;-76
2022/12/06 03:30:07;;;;;;;11.88;7.97;;;;;;;;;;4986187;28;20054;-77
2022/12/06 03:32:37;;;;;;;10.75;8.10;;;;;;;;;;4986517;28;20034;-77
2022/12/06 03:35:06;;;;;;;9.38;6.05;;;;;;;;;;4991210;28;20069;-78
2022/12/06 03:37:37;;;;;;;13.57;8.43;;;;;;;;;;4981752;28;20074;-78
2022/12/06 03:40:11;;;;;;;10.27;7.88;;;;;;;;;;4994546;28;20588;-77
2022/12/06 03:42:37;;;;;;;12.57;8.75;;;;;;;;;;4978242;28;20031;-77
2022/12/06 03:45:06;;;;;;;9.85;7.63;;;;;;;;;;4990156;28;20049;-78
2022/12/06 03:47:51;;;;;;;11.02;7.30;;;;;;;;;;4981372;28;20393;-77
2022/12/06 03:50:26;;;;;;;13.88;7.35;;;;;;;;;;4981897;28;20019;-77
2022/12/06 03:52:54;;;;;;;9.88;7.22;;;;;;;;;;4991613;28;20030;-79
2022/12/06 03:55:28;;;;;;;11.13;7.90;;;;;;;;;;4989401;28;20705;-78
2022/12/06 03:58:02;;;;;;;10.57;7.30;;;;;;;;;;4982894;28;20037;-77
2022/12/06 04:00:31;;;;;;;12.75;6.88;;;;;;;;;;4978185;28;20560;-77
2022/12/06 04:03:10;;;;;;;9.88;7.03;;;;;;;;;;4990222;28;20097;-77
2022/12/06 04:05:36;;;;;;;12.00;7.03;;;;;;;;;;4980717;28;20019;-77
2022/12/06 04:08:25;;;;;;;9.65;6.15;;;;;;;;;;4981853;28;20035;-77
2022/12/06 04:10:56;;;;;;;8.43;6.32;;;;;;;;;;4990342;28;20147;-77
2022/12/06 04:13:34;;;;;;;;;;;;;;;;;;4986586;28;20117;-77
2022/12/06 04:18:09;;;;;;;9.32;6.00;;;;;;;;;;4983744;28;19997;-78
2022/12/06 04:19:00;;;;;;;7.78;6.00;;;;;;;;;;4991752;28;20485;-78
2022/12/06 04:24:39;;;;;;;10.80;6.30;;;;;;;;;;4982404;28;20085;-78
2022/12/06 04:38:43;;;;;;;7.20;5.25;;;;;;;;;;4986856;28;20550;-77
2022/12/06 04:44:18;;;;;;;7.38;5.63;;;;;;;;;;4986329;28;20519;-78
2022/12/06 04:46:47;;;;;;;6.78;5.45;;;;;;;;;;4977721;28;20030;-79
2022/12/06 04:49:21;;;;;;;9.50;6.03;;;;;;;;;;4989644;28;20019;-77
2022/12/06 04:51:56;;;;;;;9.25;6.80;;;;;;;;;;5029751;23;20057;-73
2022/12/06 04:54:30;;;;;;;9.00;6.05;;;;;;;;;;4998066;28;20603;-73
2022/12/06 04:57:05;;;;;;;7.95;6.22;;;;;;;;;;5009668;28;20034;-76
2022/12/06 04:59:44;;;;;;;9.50;7.07;;;;;;;;;;5013597;28;20066;-78
2022/12/06 05:02:16;;;;;;;8.38;6.60;;;;;;;;;;5024867;28;20065;-78
2022/12/06 05:05:04;;;;;;;10.43;6.75;;;;;;;;;;5033949;28;20029;-80
2022/12/06 05:16:39;;;;;;;9.48;6.35;;;;;;;;;;4978107;28;20478;-75
2022/12/06 05:19:33;;;;;;;10.18;6.57;;;;;;;;;;5051010;28;20032;-77
2022/12/06 05:22:20;;;;;;;;;;;;;;;;;;;;;
2022/12/06 05:25:20;;;;;;;9.77;7.00;;;;;;;;;;5054793;28;20036;-74
2022/12/06 05:32:12;;;;;;;9.73;6.70;;;;;;;;;;4957419;28;20035;-74
2022/12/06 05:34:48;;;;;;;10.93;7.38;;;;;;;;;;4962849;28;20027;-75
2022/12/06 05:37:55;;;;;;;11.70;7.25;;;;;;;;;;4929006;28;20023;-73
2022/12/06 05:40:41;;;;;;;;;;;;;;;;;;;;;
2022/12/06 05:43:31;;;;;;;9.43;6.90;;;;;;;;;;4954548;28;20162;-74
2022/12/06 05:59:13;;;;;;;12.38;8.35;;;;;;;;;;5007373;28;20408;-74
2022/12/06 06:01:45;;;;;;;12.40;6.93;;;;;;;;;;5034436;28;20033;-73
2022/12/06 06:04:23;;;;;;;13.52;7.88;;;;;;;;;;5031769;28;20385;-74
2022/12/06 06:07:06;;;;;;;11.77;8.10;;;;;;;;;;5031575;28;20029;-75
2022/12/06 06:09:44;;;;;;;11.93;7.72;;;;;;;;;;5032959;28;20060;-76
2022/12/06 06:12:13;;;;;;;15.75;9.13;;;;;;;;;;5032767;28;20182;-73
2022/12/06 06:14:52;;;;;;;14.82;8.90;;;;;;;;;;5028430;28;20458;-73
2022/12/06 06:17:42;;;;;;;11.43;7.53;;;;;;;;;;5016744;28;20101;-74
2022/12/06 06:20:22;;;;;;;11.88;7.55;;;;;;;;;;5039748;28;20033;-74
2022/12/06 06:22:51;;;;;;;10.88;7.97;;;;;;;;;;5015106;28;20021;-74
2022/12/06 06:25:24;;;;;;;13.32;8.48;;;;;;;;;;5027025;28;20022;-76
2022/12/06 06:27:54;;;;;;;11.48;8.00;;;;;;;;;;5011855;28;20452;-76
2022/12/06 06:30:23;;;;;;;13.02;8.75;;;;;;;;;;5042980;28;20036;-76
2022/12/06 06:32:52;;;;;;;13.02;8.45;;;;;;;;;;5035284;28;20037;-75
2022/12/06 06:35:27;;;;;;;14.00;9.25;;;;;;;;;;5030308;28;20021;-74
2022/12/06 06:37:53;;;;;;;10.30;7.70;;;;;;;;;;5042509;28;20029;-75
2022/12/06 06:56:25;;;;;;;12.30;8.15;;;;;;;;;;5039811;28;20029;-73
2022/12/06 06:59:03;;;;;;;15.13;8.48;;;;;;;;;;5032639;28;20598;-73
2022/12/06 07:01:30;;;;;;;13.65;8.48;;;;;;;;;;5097745;23;20070;-72
2022/12/06 07:03:56;;;;;;;14.85;9.13;;;;;;;;;;5056807;28;20120;-76
2022/12/06 07:06:28;;;;;;;11.15;7.70;;;;;;;;;;5043054;28;20021;-74
2022/12/06 07:08:54;;;;;;;11.73;7.75;;;;;;;;;;5053112;28;20493;-74
2022/12/06 07:11:20;;;;;;;10.18;6.80;;;;;;;;;;5049319;22;20038;-73
2022/12/06 07:13:49;;;;;;;9.98;6.93;;;;;;;;;;5007720;28;20163;-73
2022/12/06 07:16:18;;;;;;;11.20;7.68;;;;;;;;;;5009554;28;20496;-74
2022/12/06 07:18:47;;;;;;;11.23;7.05;;;;;;;;;;5030570;28;20494;-75
2022/12/06 07:24:19;;;;;;;10.95;7.65;;;;;;;;;;5055408;28;20392;-73
2022/12/06 07:26:45;;;;;;;10.93;6.78;;;;;;;;;;5071166;28;20029;-74
2022/12/06 07:29:11;;;;;;;14.20;8.32;;;;;;;;;;5039839;28;20013;-73
2022/12/06 07:32:00;;;;;;;14.93;8.90;;;;;;;;;;5119224;22;20052;-72
2022/12/06 07:35:11;;;;;;;13.52;8.63;;;;;;;;;;5074001;28;20024;-74
2022/12/06 07:38:05;;;;;;;11.68;8.00;;;;;;;;;;5060989;28;20033;-73
2022/12/06 07:40:52;;;;;;;11.43;8.10;;;;;;;;;;5024467;28;20026;-75
2022/12/06 07:46:14;;;;;;;11.25;8.00;;;;;;;;;;5047061;28;20498;-74
2022/12/06 07:52:03;;;;;;;11.80;7.72;;;;;;;;;;5149609;22;20041;-73
2022/12/06 07:54:30;;;;;;;12.02;8.40;;;;;;;;;;5038722;28;20506;-73
2022/12/06 07:56:59;;;;;;;11.95;8.40;;;;;;;;;;5052176;28;20020;-73
2022/12/06 07:59:38;;;;;;;12.25;7.65;;;;;;;;;;5060385;28;20016;-74
2022/12/06 08:02:19;;;;;;;12.38;8.25;;;;;;;;;;5106279;23;20060;-74
2022/12/06 08:09:28;;;;;;;;;;;;;;;;;;;;;
2022/12/06 08:13:55;;;;;;;13.70;8.48;;;;;;;;;;5389773;23;20621;-74
2022/12/06 08:16:21;;;;;;;13.00;8.48;;;;;;;;;;5021434;28;20037;-75
2022/12/06 08:18:51;;;;;;;14.00;9.23;;;;;;;;;;5047732;28;20040;-74
2022/12/06 08:21:20;;;;;;;13.77;9.45;;;;;;;;;;5055405;28;20048;-74
2022/12/06 08:23:52;;;;;;;12.85;8.75;;;;;;;;;;5064155;28;20032;-75
2022/12/06 08:26:18;;;;;;;13.07;9.23;;;;;;;;;;5053054;28;20055;-74
2022/12/06 08:28:44;;;;;;;13.68;8.57;;;;;;;;;;5052567;28;20024;-78
2022/12/06 08:31:34;;;;;;;12.60;9.43;;;;;;;;;;5067272;23;20372;-75
2022/12/06 08:34:09;;;;;;;14.95;10.38;;;;;;;;;;5038152;28;20040;-77
2022/12/06 08:36:43;;;;;;;15.05;9.75;;;;;;;;;;5028421;28;20056;-75
2022/12/06 08:39:31;;;;;;;11.32;8.20;;;;;;;;;;5031147;28;20037;-76
2022/12/06 08:42:05;;;;;;;13.35;8.70;;;;;;;;;;5040147;28;20024;-75
2022/12/06 08:44:36;;;;;;;11.93;8.68;;;;;;;;;;5044373;28;20041;-75
2022/12/06 08:47:13;;;;;;;13.85;8.88;;;;;;;;;;5018856;28;20037;-76
2022/12/06 08:52:34;;;;;;;12.32;8.65;;;;;;;;;;5076407;22;20057;-75
2022/12/06 08:55:27;;;;;;;12.98;9.60;;;;;;;;;;5035492;28;20025;-76
2022/12/06 08:57:55;;;;;;;11.40;8.38;;;;;;;;;;5040506;28;20049;-77
2022/12/06 09:00:27;;;;;;;13.85;8.77;;;;;;;;;;5027247;28;20029;-74
2022/12/06 09:03:04;;;;;;;14.20;9.93;;;;;;;;;;5051496;28;20037;-75
2022/12/06 09:05:50;;;;;;;;;;;;;;;;;;;;;
2022/12/06 09:08:24;;;;;;;13.88;9.77;;;;;;;;;;5044950;28;20070;-78
2022/12/06 09:11:11;;;;;;;13.13;9.30;;;;;;;;;;5042565;28;20027;-76
2022/12/06 09:13:46;;;;;;;11.52;8.57;;;;;;;;;;5033533;28;20068;-77
2022/12/06 09:16:47;;;;;;;13.30;9.20;;;;;;;;;;5039913;28;20037;-77
2022/12/06 09:19:23;;;;;;;16.10;10.27;;;;;;;;;;4997709;28;20075;-75
2022/12/06 09:22:06;;;;;;;13.48;9.52;;;;;;;;;;5042595;28;20028;-75
2022/12/06 09:25:16;;;;;;;13.02;9.05;;;;;;;;;;5034172;28;20039;-76
2022/12/06 09:28:12;;;;;;;10.50;7.93;;;;;;;;;;5047721;28;20024;-76
2022/12/06 09:31:10;;;;;;;13.30;9.02;;;;;;;;;;5061915;28;20383;-76
2022/12/06 09:34:22;;;;;;;;;;;;;;;;;;;;;
2022/12/06 09:46:18;;;;;;;9.73;7.50;;;;;;;;;;5050102;28;20039;-77
2022/12/06 09:52:23;;;;;;;11.23;7.18;;;;;;;;;;4425374;22;20082;-77
2022/12/06 09:55:02;;;;;;;10.25;8.23;;;;;;;;;;5071538;28;20410;-77
2022/12/06 09:57:37;;;;;;;10.50;8.15;;;;;;;;;;5054075;28;20025;-77
2022/12/06 10:00:10;;;;;;;10.45;7.75;;;;;;;;;;5072426;28;20017;-77
2022/12/06 10:02:46;;;;;;;10.48;7.90;;;;;;;;;;5053902;28;20071;-76
2022/12/06 10:05:20;;;;;;;10.90;8.07;;;;;;;;;;5055736;28;20028;-76
2022/12/06 10:08:12;;;;;;;11.18;8.02;;;;;;;;;;5053510;28;20016;-75
2022/12/06 10:10:51;;;;;;;10.98;7.65;;;;;;;;;;5072086;28;20020;-75
2022/12/06 10:13:27;;;;;;;11.10;8.10;;;;;;;;;;5040720;28;20081;-75
2022/12/06 10:16:15;;;;;;;9.90;7.63;;;;;;;;;;5054678;28;20025;-76
2022/12/06 10:19:07;;;;;;;11.23;7.95;;;;;;;;;;5051417;28;20064;-76
2022/12/06 10:21:43;;;;;;;11.40;8.38;;;;;;;;;;5070795;28;20028;-77
2022/12/06 10:24:18;;;;;;;9.77;7.97;;;;;;;;;;5065492;28;20029;-77
2022/12/06 10:26:44;;;;;;;10.48;7.93;;;;;;;;;;5066395;28;20167;-75
2022/12/06 10:29:31;;;;;;;10.10;8.13;;;;;;;;;;5040929;28;20082;-75
2022/12/06 10:32:06;;;;;;;9.32;7.25;;;;;;;;;;5063416;28;20025;-75
2022/12/06 10:34:51;;;;;;;10.32;7.38;;;;;;;;;;5049812;28;20036;-75
2022/12/06 10:37:36;;;;;;;11.15;8.85;;;;;;;;;;5058203;28;20326;-76
2022/12/06 10:40:10;;;;;;;11.52;8.77;;;;;;;;;;5074084;28;20099;-77
2022/12/06 10:42:45;;;;;;;12.52;7.97;;;;;;;;;;5055429;28;20020;-75
2022/12/06 10:48:26;;;;;;;11.05;8.00;;;;;;;;;;5062055;28;20114;-75
2022/12/06 10:51:01;;;;;;;10.73;8.13;;;;;;;;;;5057745;28;20166;-73
2022/12/06 10:53:35;;;;;;;15.32;7.68;;;;;;;;;;5044221;28;20024;-75
2022/12/06 10:56:05;;;;;;;9.02;6.63;;;;;;;;;;5056197;28;20047;-76
2022/12/06 10:58:45;;;;;;;10.85;7.60;;;;;;;;;;5074509;28;20017;-76
2022/12/06 11:01:23;;;;;;;9.98;7.00;;;;;;;;;;5040331;28;20037;-75
2022/12/06 11:03:57;;;;;;;10.07;7.45;;;;;;;;;;5056143;28;20032;-73
2022/12/06 11:06:44;;;;;;;10.80;7.50;;;;;;;;;;5074548;28;20031;-74
2022/12/06 11:09:34;;;;;;;10.65;7.03;;;;;;;;;;5040861;28;20029;-75
2022/12/06 11:12:05;;;;;;;9.60;7.32;;;;;;;;;;5065085;28;20025;-75
2022/12/06 11:14:49;;;;;;;11.88;7.35;;;;;;;;;;5052259;28;20021;-76
2022/12/06 11:17:32;;;;;;;11.10;8.15;;;;;;;;;;5059458;28;20135;-75
2022/12/06 11:20:08;;;;;;;8.75;7.13;;;;;;;;;;5074923;28;20067;-75
2022/12/06 11:22:47;;;;;;;9.85;7.32;;;;;;;;;;5057092;28;20107;-76
2022/12/06 11:25:25;;;;;;;11.40;7.88;;;;;;;;;;5042471;28;20074;-77
2022/12/06 11:27:56;;;;;;;10.88;8.05;;;;;;;;;;5074567;28;20032;-77
2022/12/06 11:30:31;;;;;;;10.90;8.10;;;;;;;;;;5060193;28;20033;-75
2022/12/06 11:32:57;;;;;;;11.18;8.25;;;;;;;;;;5077573;28;20024;-75
2022/12/06 11:35:30;;;;;;;11.23;7.75;;;;;;;;;;5090475;28;20310;-76
2022/12/06 11:38:08;;;;;;;13.63;8.70;;;;;;;;;;5093594;28;20086;-79
2022/12/06 11:40:42;;;;;;;13.15;9.70;;;;;;;;;;5077948;28;20060;-77
2022/12/06 11:43:14;;;;;;;10.38;7.75;;;;;;;;;;5095972;28;20044;-78
2022/12/06 11:45:42;;;;;;;;;;;;;;;;;;5093688;28;20033;-76
2022/12/06 11:48:15;;;;;;;12.45;7.82;;;;;;;;;;5085930;28;20285;-77
2022/12/06 11:50:44;;;;;;;9.23;7.57;;;;;;;;;;5074350;28;20066;-77
2022/12/06 11:53:19;;;;;;;11.13;7.53;;;;;;;;;;5057047;28;20029;-75
2022/12/06 11:55:47;;;;;;;8.88;6.38;;;;;;;;;;5056380;28;20021;-75
2022/12/06 11:58:30;;;;;;;12.15;6.75;;;;;;;;;;5055993;28;20032;-75
2022/12/06 12:03:29;;;;;;;12.65;6.88;;;;;;;;;;5070861;28;20040;-77
2022/12/06 12:06:16;;;;;;;11.15;7.43;;;;;;;;;;5074137;28;20067;-76
2022/12/06 12:09:01;;;;;;;8.25;6.75;;;;;;;;;;5073629;28;20033;-77
2022/12/06 12:14:45;;;;;;;9.95;7.30;;;;;;;;;;5064105;28;20064;-75
2022/12/06 12:17:24;;;;;;;10.82;6.80;;;;;;;;;;5084610;22;20047;-77
2022/12/06 12:20:08;;;;;;;11.60;7.18;;;;;;;;;;5045580;28;20041;-78
2022/12/06 12:22:43;;;;;;;10.55;7.18;;;;;;;;;;5071500;28;20381;-76
2022/12/06 12:25:51;;;;;;;10.00;6.90;;;;;;;;;;5071035;28;20047;-77
2022/12/06 12:29:10;;;;;;;8.93;6.78;;;;;;;;;;4952413;28;20046;-77
2022/12/06 12:31:55;;;;;;;10.05;7.03;;;;;;;;;;4921106;28;20034;-77
2022/12/06 12:34:32;;;;;;;8.90;7.03;;;;;;;;;;5052724;28;20036;-77
2022/12/06 12:37:22;;;;;;;10.43;7.03;;;;;;;;;;5046390;28;20048;-78
2022/12/06 12:39:59;;;;;;;10.52;6.63;;;;;;;;;;5051572;28;20025;-74
2022/12/06 12:42:43;;;;;;;;;;;;;;;;;;;;;
2022/12/06 12:45:42;;;;;;;;;;;;;;;;;;;;;
2022/12/06 12:48:30;;;;;;;11.35;8.00;;;;;;;;;;5058788;22;20037;-75
2022/12/06 12:51:28;;;;;;;11.30;7.82;;;;;;;;;;5014773;28;20029;-77
2022/12/06 12:54:00;;;;;;;14.50;8.70;;;;;;;;;;5032541;28;20021;-78
2022/12/06 12:56:50;;;;;;;12.48;8.10;;;;;;;;;;5015469;28;20101;-78
2022/12/06 13:02:37;;;;;;;13.52;8.77;;;;;;;;;;5117660;23;20049;-72
2022/12/06 13:05:06;;;;;;;12.13;9.13;;;;;;;;;;5013482;28;20036;-75
2022/12/06 13:07:44;;;;;;;14.02;10.20;;;;;;;;;;5031677;28;20034;-76
2022/12/06 13:10:28;;;;;;;12.75;8.75;;;;;;;;;;5021282;28;20041;-75
2022/12/06 13:12:56;;;;;;;16.20;10.15;;;;;;;;;;5011478;28;20018;-75
2022/12/06 13:15:57;;;;;;;15.75;9.85;;;;;;;;;;5011423;28;20032;-77
2022/12/06 13:18:37;;;;;;;13.20;10.15;;;;;;;;;;4992213;28;20121;-74
2022/12/06 13:21:13;;;;;;;16.55;10.25;;;;;;;;;;5041479;23;20049;-72
2022/12/06 13:23:43;;;;;;;15.38;10.88;;;;;;;;;;5052112;28;20124;-75
2022/12/06 13:26:32;;;;;;;16.58;10.45;;;;;;;;;;5036094;28;20124;-77
2022/12/06 13:29:25;;;;;;;14.07;10.27;;;;;;;;;;5045180;28;20133;-74
2022/12/06 13:32:04;;;;;;;14.10;9.98;;;;;;;;;;5041898;23;20056;-73
2022/12/06 13:34:38;;;;;;;14.23;9.60;;;;;;;;;;5050679;28;20021;-75
2022/12/06 13:37:32;;;;;;;15.00;10.73;;;;;;;;;;5051267;28;20025;-75
2022/12/06 13:39:58;;;;;;;17.70;10.93;;;;;;;;;;5051731;28;20041;-77
2022/12/06 13:42:42;;;;;;;15.70;10.45;;;;;;;;;;5054059;28;20033;-76
2022/12/06 13:45:26;;;;;;;17.40;12.32;;;;;;;;;;5067379;23;20036;-76
2022/12/06 13:47:56;;;;;;;15.32;10.50;;;;;;;;;;5047362;28;20029;-77
2022/12/06 13:50:31;;;;;;;16.20;10.90;;;;;;;;;;5050129;28;20017;-77
2022/12/06 13:54:00;;;;;;;;;;;;;;;;;;;;;
2022/12/06 13:56:09;;;;;;;;;;;;;;;;;;5007847;28;20028;-76
2022/12/06 14:01:59;;;;;;;19.48;13.65;;;;;;;;;;5041458;28;20063;-78
2022/12/06 14:07:12;;;;;;;17.67;12.07;;;;;;;;;;5053816;28;20021;-79
2022/12/06 14:20:20;;;;;;;;;;;;;;;;;;;;;
2022/12/06 14:25:50;;;;;;;;;;;;;;;;;;;;;
2022/12/06 14:37:58;;;;;;;17.13;11.85;;;;;;;;;;4962611;28;20037;-80
2022/12/06 14:47:15;;;;;;;16.23;10.02;;;;;;;;;;5154550;23;20495;-79
2022/12/06 15:02:52;;;;;;;14.15;10.07;;;;;;;;;;4954677;29;20034;-77
2022/12/06 15:15:31;;;;;;;;;;;;;;;;;;;;;
2022/12/06 15:18:15;;;;;;;;;;;;;;;;;;;;;
2022/12/06 15:40:01;;;;;;;;;;;;;;;;;;;;;
2022/12/06 16:05:13;;;;;;;12.27;9.23;;;;;;;;;;5884953;23;20047;-77
2022/12/06 16:07:42;;;;;;;13.18;9.73;;;;;;;;;;5056683;28;20067;-76
2022/12/06 16:10:49;;;;;;;11.85;9.50;;;;;;;;;;5074209;28;20024;-77
2022/12/06 16:13:24;;;;;;;13.00;9.18;;;;;;;;;;5056093;28;20111;-80
2022/12/06 16:16:09;;;;;;;11.98;9.10;;;;;;;;;;5074139;28;20032;-77
2022/12/06 16:19:14;;;;;;;11.40;8.10;;;;;;;;;;5058576;28;20043;-75
2022/12/06 16:22:13;;;;;;;10.60;7.75;;;;;;;;;;5049031;28;20130;-77
2022/12/06 16:24:51;;;;;;;12.38;8.55;;;;;;;;;;4993592;28;20310;-79
2022/12/06 16:27:23;;;;;;;13.13;8.30;;;;;;;;;;5065187;28;20139;-77
2022/12/06 16:30:00;;;;;;;17.17;8.60;;;;;;;;;;5081048;28;20129;-77
2022/12/06 16:32:36;;;;;;;12.88;9.10;;;;;;;;;;5079408;28;20027;-79
2022/12/06 16:35:14;;;;;;;12.73;8.95;;;;;;;;;;5087158;28;20031;-78
2022/12/06 16:37:51;;;;;;;14.32;9.52;;;;;;;;;;5084589;28;20171;-78
2022/12/06 16:40:28;;;;;;;12.60;9.65;;;;;;;;;;5094987;28;20036;-78
2022/12/06 16:43:08;;;;;;;13.63;10.05;;;;;;;;;;5094423;28;20040;-78
2022/12/06 16:45:51;;;;;;;10.13;8.85;;;;;;;;;;5094937;28;20027;-77
2022/12/06 16:48:22;;;;;;;13.65;10.13;;;;;;;;;;5093208;28;20103;-77
2022/12/06 16:50:51;;;;;;;12.65;9.30;;;;;;;;;;5068704;28;20494;-77
2022/12/06 16:53:17;;;;;;;16.85;12.75;;;;;;;;;;5073261;28;20037;-77
2022/12/06 16:55:56;;;;;;;;;;;;;;;;;;;;;
2022/12/06 16:58:30;;;;;;;12.27;10.10;;;;;;;;;;5093197;28;20016;-76
2022/12/06 17:01:13;;;;;;;10.70;8.43;;;;;;;;;;5094143;28;20085;-78
2022/12/06 17:03:48;;;;;;;12.75;8.95;;;;;;;;;;5075401;28;20034;-80
2022/12/06 17:06:47;;;;;;;11.18;9.20;;;;;;;;;;5075439;28;20062;-77
2022/12/06 17:09:16;;;;;;;10.02;8.05;;;;;;;;;;5001418;28;20127;-77
2022/12/06 17:14:51;;;;;;;9.65;7.50;;;;;;;;;;5091760;28;20027;-77
2022/12/06 17:17:24;;;;;;;10.07;8.07;;;;;;;;;;5071895;28;20043;-77
2022/12/06 17:20:06;;;;;;;9.68;7.20;;;;;;;;;;5091212;28;20035;-79
2022/12/06 17:22:42;;;;;;;9.02;6.88;;;;;;;;;;5092750;28;20375;-77
2022/12/06 17:25:09;;;;;;;8.93;6.95;;;;;;;;;;5074262;28;20183;-77
2022/12/06 17:27:37;;;;;;;11.05;8.20;;;;;;;;;;5091613;28;20039;-77
2022/12/06 17:30:06;;;;;;;12.88;9.32;;;;;;;;;;5073899;28;20028;-78
2022/12/06 17:32:38;;;;;;;10.60;7.82;;;;;;;;;;5092912;28;20044;-77
2022/12/06 17:35:07;;;;;;;10.10;7.10;;;;;;;;;;5091606;28;20107;-76
2022/12/06 17:37:34;;;;;;;10.80;6.68;;;;;;;;;;5092478;28;20028;-75
2022/12/06 17:40:05;;;;;;;13.38;8.88;;;;;;;;;;5091593;28;20032;-77
2022/12/06 17:45:18;;;;;;;5.55;4.57;;;;;;;;;;5092440;28;20081;-77
2022/12/06 17:47:47;;;;;;;6.65;5.18;;;;;;;;;;5073741;28;20073;-77
2022/12/06 17:50:25;;;;;;;6.13;4.88;;;;;;;;;;5074458;28;20551;-77
2022/12/06 17:52:54;;;;;;;7.43;5.15;;;;;;;;;;5092025;28;20127;-77
2022/12/06 17:55:30;;;;;;;6.10;5.10;;;;;;;;;;5092293;28;20032;-77
2022/12/06 17:58:04;;;;;;;6.75;5.18;;;;;;;;;;5073931;28;20028;-77
2022/12/06 18:00:32;;;;;;;7.00;4.88;;;;;;;;;;5073307;28;20107;-78
2022/12/06 18:02:58;;;;;;;5.72;4.75;;;;;;;;;;5095326;28;20069;-76
2022/12/06 18:05:25;;;;;;;5.45;4.72;;;;;;;;;;5078500;28;20055;-76
2022/12/06 18:07:51;;;;;;;6.40;4.55;;;;;;;;;;5092179;28;20100;-76
2022/12/06 18:10:21;;;;;;;6.82;4.53;;;;;;;;;;5092181;28;20020;-76
2022/12/06 18:12:58;;;;;;;8.07;5.32;;;;;;;;;;5074147;28;20115;-76
2022/12/06 18:15:39;;;;;;;6.85;4.90;;;;;;;;;;5073615;28;20059;-80
2022/12/06 18:18:05;;;;;;;4.82;4.03;;;;;;;;;;5091620;28;20127;-78
2022/12/06 18:20:34;;;;;;;6.30;4.80;;;;;;;;;;5092203;28;20028;-77
2022/12/06 18:23:00;;;;;;;6.00;4.72;;;;;;;;;;5092488;28;20028;-79
2022/12/06 18:25:34;;;;;;;5.45;4.57;;;;;;;;;;5092755;28;20171;-76
2022/12/06 18:28:02;;;;;;;4.50;3.97;;;;;;;;;;5074890;28;20482;-77
2022/12/06 18:30:28;;;;;;;5.05;3.80;;;;;;;;;;5074202;28;20039;-80
2022/12/06 18:32:55;;;;;;;6.60;4.47;;;;;;;;;;5092913;28;20401;-76
2022/12/06 18:35:21;;;;;;;5.78;4.07;;;;;;;;;;5092587;28;20035;-79
2022/12/06 18:37:47;;;;;;;7.00;3.65;;;;;;;;;;5071518;28;20028;-76
2022/12/06 18:40:13;;;;;;;5.03;4.10;;;;;;;;;;5070360;28;20036;-77
2022/12/06 18:42:39;;;;;;;4.28;3.88;;;;;;;;;;5070385;28;20042;-77
2022/12/06 18:45:08;;;;;;;4.43;3.97;;;;;;;;;;5072296;28;20031;-78
2022/12/06 18:47:34;;;;;;;5.00;4.10;;;;;;;;;;5073391;28;20418;-76
2022/12/06 18:50:11;;;;;;;4.90;3.60;;;;;;;;;;5076413;28;20078;-78
2022/12/06 18:52:46;;;;;;;4.22;3.83;;;;;;;;;;5075098;28;20024;-77
2022/12/06 18:55:20;;;;;;;3.63;3.28;;;;;;;;;;5074731;28;20037;-76
2022/12/06 18:57:46;;;;;;;3.95;3.42;;;;;;;;;;5074358;28;20025;-77
2022/12/06 19:00:31;;;;;;;4.00;3.60;;;;;;;;;;5074037;28;20516;-76
2022/12/06 19:03:01;;;;;;;5.53;3.53;;;;;;;;;;5075748;28;20033;-73
2022/12/06 19:05:29;;;;;;;5.00;3.58;;;;;;;;;;5073822;28;20077;-77
2022/12/06 19:08:00;;;;;;;4.72;3.70;;;;;;;;;;5074033;28;20028;-79
2022/12/06 19:13:24;;;;;;;3.45;3.15;;;;;;;;;;5075429;28;20032;-77
2022/12/06 19:15:50;;;;;;;8.35;4.10;;;;;;;;;;5048287;23;20061;-77